createdAt,value
2018-12-12T00:04:48.171Z,9.20
2018-12-12T00:09:50.427Z,9.83
2018-12-12T00:14:52.708Z,10.53
2018-12-12T00:19:54.943Z,8.90
2018-12-12T00:24:57.372Z,9.50
2018-12-12T00:29:59.630Z,10.10
2018-12-12T00:35:01.915Z,11.60
2018-12-12T00:40:04.418Z,13.80
2018-12-12T00:45:06.892Z,12.20
2018-12-12T00:50:09.253Z,13.27
2018-12-12T00:55:11.495Z,14.33
2018-12-12T01:00:13.776Z,14.43
2018-12-12T01:05:16.068Z,17.10
2018-12-12T01:10:18.429Z,12.70
2018-12-12T01:15:20.728Z,11.63
2018-12-12T01:20:23.140Z,12.33
2018-12-12T01:25:25.435Z,12.03
2018-12-12T01:30:27.686Z,11.63
2018-12-12T01:35:30.115Z,9.77
2018-12-12T01:40:32.396Z,9.77
2018-12-12T01:45:34.646Z,8.37
2018-12-12T01:50:36.903Z,9.37
2018-12-12T01:55:39.163Z,9.83
2018-12-12T02:00:41.428Z,7.70
2018-12-12T02:05:43.957Z,8.47
2018-12-12T02:10:46.543Z,9.60
2018-12-12T02:15:48.831Z,8.17
2018-12-12T02:20:51.087Z,9.37
2018-12-12T02:25:53.365Z,10.53
2018-12-12T02:30:56.929Z,10.67
2018-12-12T02:35:59.573Z,8.33
2018-12-12T02:41:01.837Z,8.80
2018-12-12T02:46:04.117Z,12.53
2018-12-12T02:51:06.387Z,11.40
2018-12-12T02:56:08.686Z,11.67
2018-12-12T03:01:10.945Z,10.90
2018-12-12T03:06:13.256Z,13.97
2018-12-12T03:11:20.118Z,14.33
2018-12-12T03:16:22.421Z,12.40
2018-12-12T03:21:24.806Z,14.83
2018-12-12T03:26:27.118Z,18.50
2018-12-12T03:31:29.386Z,78.70
2018-12-12T03:36:31.662Z,34.77
2018-12-12T03:41:33.964Z,20.40
2018-12-12T03:46:36.227Z,17.70
2018-12-12T03:51:38.488Z,21.60
2018-12-12T03:56:42.877Z,16.70
2018-12-12T04:01:45.171Z,16.20
2018-12-12T04:06:47.435Z,15.90
2018-12-12T04:11:49.761Z,17.17
2018-12-12T04:16:52.043Z,14.57
2018-12-12T04:21:54.437Z,13.17
2018-12-12T04:26:56.689Z,14.20
2018-12-12T04:31:58.987Z,15.63
2018-12-12T04:37:01.270Z,19.57
2018-12-12T04:42:03.934Z,15.80
2018-12-12T04:47:06.239Z,17.53
2018-12-12T04:52:08.678Z,14.40
2018-12-12T04:57:12.256Z,13.03
2018-12-12T05:02:19.350Z,13.83
2018-12-12T05:07:21.597Z,12.07
2018-12-12T05:12:24.060Z,12.27
2018-12-12T05:17:26.360Z,11.13
2018-12-12T05:22:28.681Z,10.03
2018-12-12T05:27:30.924Z,10.53
2018-12-12T05:32:33.143Z,9.53
2018-12-12T05:37:35.374Z,10.73
2018-12-12T05:42:37.848Z,11.00
2018-12-12T05:47:40.078Z,10.47
2018-12-12T05:52:42.311Z,11.27
2018-12-12T05:57:44.581Z,9.00
2018-12-12T06:02:46.894Z,12.20
2018-12-12T06:07:49.739Z,12.20
2018-12-12T06:12:52.034Z,12.57
2018-12-12T06:17:54.421Z,11.53
2018-12-12T06:22:56.669Z,10.97
2018-12-12T06:27:59.037Z,12.90
2018-12-12T06:33:01.312Z,13.37
2018-12-12T06:38:03.680Z,12.17
2018-12-12T06:43:05.988Z,12.20
2018-12-12T06:48:08.230Z,14.70
2018-12-12T06:53:10.489Z,13.60
2018-12-12T06:58:12.751Z,11.30
2018-12-12T07:03:14.999Z,10.30
2018-12-12T07:08:17.277Z,9.03
2018-12-12T07:13:19.573Z,10.93
2018-12-12T07:18:21.868Z,9.37
2018-12-12T07:23:24.110Z,10.30
2018-12-12T07:28:27.303Z,10.90
2018-12-12T07:33:29.803Z,13.10
2018-12-12T07:38:32.063Z,12.20
2018-12-12T07:43:34.566Z,13.17
2018-12-12T07:48:43.054Z,12.97
2018-12-12T07:53:51.321Z,11.77
2018-12-12T07:58:53.607Z,12.47
2018-12-12T08:03:55.873Z,12.50
2018-12-12T08:08:58.203Z,11.93
2018-12-12T08:14:00.508Z,12.97
2018-12-12T08:19:03.265Z,12.67
2018-12-12T08:24:05.637Z,12.47
2018-12-12T08:29:07.886Z,11.53
2018-12-12T08:34:10.148Z,12.90
2018-12-12T08:39:12.384Z,12.87
2018-12-12T08:44:14.730Z,15.30
2018-12-12T08:49:16.981Z,10.93
2018-12-12T08:54:19.253Z,16.87
2018-12-12T08:59:21.636Z,14.73
2018-12-12T09:04:23.901Z,12.00
2018-12-12T09:09:26.159Z,15.40
2018-12-12T09:14:28.488Z,17.90
2018-12-12T09:19:30.726Z,14.23
2018-12-12T09:24:33.114Z,16.20
2018-12-12T09:29:35.429Z,22.17
2018-12-12T09:34:41.503Z,27.10
2018-12-12T09:39:43.780Z,21.83
2018-12-12T09:44:46.408Z,19.17
2018-12-12T09:49:48.745Z,18.27
2018-12-12T09:54:53.012Z,18.37
2018-12-12T09:59:55.292Z,16.97
2018-12-12T10:04:57.628Z,12.83
2018-12-12T10:09:59.917Z,11.70
2018-12-12T10:15:02.409Z,12.53
2018-12-12T10:20:06.650Z,14.47
2018-12-12T10:25:09.090Z,15.43
2018-12-12T10:30:11.350Z,11.90
2018-12-12T10:35:14.576Z,11.23
2018-12-12T10:40:17.108Z,14.10
2018-12-12T10:45:20.504Z,11.17
2018-12-12T10:50:22.770Z,13.47
2018-12-12T10:55:25.213Z,14.10
2018-12-12T11:06:00.899Z,13.97
2018-12-12T11:11:03.251Z,13.23
2018-12-12T11:16:05.685Z,14.43
2018-12-12T11:21:09.082Z,15.53
2018-12-12T11:26:11.340Z,13.03
2018-12-12T11:31:13.575Z,14.27
2018-12-12T11:36:15.933Z,14.13
2018-12-12T11:41:18.234Z,13.57
2018-12-12T11:46:20.543Z,13.80
2018-12-12T11:51:22.775Z,11.47
2018-12-12T11:56:25.159Z,15.50
2018-12-12T12:01:27.571Z,15.57
2018-12-12T12:06:29.825Z,15.10
2018-12-12T12:11:32.047Z,16.77
2018-12-12T12:16:36.391Z,14.77
2018-12-12T12:21:38.734Z,13.90
2018-12-12T12:26:40.999Z,17.83
2018-12-12T12:31:43.240Z,17.87
2018-12-12T12:36:46.449Z,15.60
2018-12-12T12:41:48.796Z,14.50
2018-12-12T12:46:51.121Z,15.03
2018-12-12T12:51:53.992Z,15.87
2018-12-12T12:56:56.601Z,15.10
2018-12-12T13:01:58.851Z,10.33
2018-12-12T13:07:01.097Z,14.43
2018-12-12T13:12:03.592Z,13.17
2018-12-12T13:17:06.084Z,17.37
2018-12-12T13:22:08.328Z,14.93
2018-12-12T13:27:10.660Z,13.67
2018-12-12T13:32:12.895Z,12.97
2018-12-12T13:37:15.616Z,15.43
2018-12-12T13:42:18.694Z,14.47
2018-12-12T13:47:21.101Z,16.13
2018-12-12T13:52:23.383Z,14.10
2018-12-12T13:57:25.653Z,15.60
2018-12-12T14:02:27.903Z,16.70
2018-12-12T14:07:30.143Z,15.33
2018-12-12T14:12:32.484Z,17.63
2018-12-12T14:17:34.821Z,17.83
2018-12-12T14:22:37.094Z,20.50
2018-12-12T14:27:39.365Z,17.20
2018-12-12T14:32:41.737Z,19.90
2018-12-12T14:37:43.994Z,17.73
2018-12-12T14:42:46.247Z,20.00
2018-12-12T14:47:48.546Z,21.40
2018-12-12T14:52:50.787Z,22.80
2018-12-12T14:57:53.024Z,21.23
2018-12-12T15:02:55.317Z,20.27
2018-12-12T15:07:57.644Z,19.63
2018-12-12T15:13:00.072Z,21.63
2018-12-12T15:18:02.467Z,24.07
2018-12-12T15:23:04.973Z,23.90
2018-12-12T15:28:07.546Z,19.97
2018-12-12T15:33:09.791Z,22.67
2018-12-12T15:38:12.244Z,24.97
2018-12-12T15:43:14.914Z,24.70
2018-12-12T15:48:18.732Z,24.97
2018-12-12T15:53:20.992Z,24.80
2018-12-12T15:58:23.694Z,24.00
2018-12-12T16:03:26.532Z,23.63
2018-12-12T16:08:28.864Z,23.90
2018-12-12T16:13:31.429Z,27.53
2018-12-12T16:18:33.737Z,23.40
2018-12-12T16:23:37.203Z,24.60
2018-12-12T16:28:39.805Z,26.07
2018-12-12T16:33:42.331Z,27.73
2018-12-12T16:38:45.181Z,27.80
2018-12-12T16:43:47.883Z,25.57
2018-12-12T16:48:52.618Z,26.07
2018-12-12T16:53:54.915Z,27.03
2018-12-12T16:58:57.590Z,29.50
2018-12-12T17:03:59.859Z,32.00
2018-12-12T17:09:04.013Z,29.87
2018-12-12T17:14:07.711Z,29.03
2018-12-12T17:19:10.055Z,43.20
2018-12-12T17:24:12.338Z,27.97
2018-12-12T17:29:14.601Z,30.23
2018-12-12T17:34:16.860Z,32.37
2018-12-12T17:39:19.375Z,31.57
2018-12-12T17:44:22.557Z,38.30
2018-12-12T17:49:25.013Z,44.37
2018-12-12T17:54:27.287Z,44.70
2018-12-12T17:59:29.645Z,40.40
2018-12-12T18:04:33.345Z,35.53
2018-12-12T18:09:35.576Z,47.97
2018-12-12T18:14:37.966Z,68.50
2018-12-12T18:19:42.389Z,39.40
2018-12-12T18:24:44.969Z,36.50
2018-12-12T18:29:47.303Z,38.07
2018-12-12T18:34:51.622Z,30.37
2018-12-12T18:39:53.930Z,31.97
2018-12-12T18:44:58.302Z,28.43
2018-12-12T18:50:00.575Z,32.27
2018-12-12T18:55:05.017Z,31.97
2018-12-12T19:00:09.567Z,30.43
2018-12-12T19:05:11.984Z,24.77
2018-12-12T19:10:14.457Z,21.97
2018-12-12T19:15:16.773Z,21.83
2018-12-12T19:20:19.159Z,20.33
2018-12-12T19:25:21.621Z,22.77
2018-12-12T19:30:23.908Z,19.83
2018-12-12T19:35:26.666Z,21.97
2018-12-12T19:40:28.989Z,25.90
2018-12-12T19:45:31.251Z,24.67
2018-12-12T19:50:34.587Z,22.70
2018-12-12T19:55:36.860Z,25.67
2018-12-12T20:00:39.175Z,24.60
2018-12-12T20:05:41.626Z,22.00
2018-12-12T20:10:45.305Z,24.93
2018-12-12T20:15:47.714Z,24.43
2018-12-12T20:20:50.089Z,27.70
2018-12-12T20:25:52.347Z,28.47
2018-12-12T20:30:55.776Z,30.77
2018-12-12T20:35:58.033Z,27.80
2018-12-12T20:41:00.317Z,29.53
2018-12-12T20:46:02.794Z,30.63
2018-12-12T20:51:05.083Z,28.27
2018-12-12T20:56:07.368Z,35.13
2018-12-12T21:01:09.639Z,35.13
2018-12-12T21:06:11.920Z,33.97
2018-12-12T21:11:14.739Z,35.93
2018-12-12T21:16:18.127Z,35.97
2018-12-12T21:21:20.412Z,37.43
2018-12-12T21:26:23.056Z,37.67
2018-12-12T21:31:25.377Z,34.03
2018-12-12T21:36:28.096Z,32.60
2018-12-12T21:41:30.337Z,32.87
2018-12-12T21:46:32.626Z,30.23
2018-12-12T21:51:35.560Z,31.17
2018-12-12T21:56:37.814Z,37.57
2018-12-12T22:01:40.072Z,37.23
2018-12-12T22:06:42.357Z,30.53
2018-12-12T22:11:44.622Z,30.60
2018-12-12T22:16:47.544Z,31.27
2018-12-12T22:21:50.079Z,29.50
2018-12-12T22:26:52.334Z,28.07
2018-12-12T22:31:54.599Z,33.47
2018-12-12T22:36:57.045Z,30.87
2018-12-12T22:41:59.419Z,26.93
2018-12-12T22:47:01.758Z,31.97
2018-12-12T22:52:04.174Z,24.13
2018-12-12T22:57:06.547Z,20.43
2018-12-12T23:02:08.791Z,24.57
2018-12-12T23:07:11.255Z,25.73
2018-12-12T23:12:13.711Z,23.60
2018-12-12T23:17:16.159Z,25.17
2018-12-12T23:22:18.512Z,29.50
2018-12-12T23:27:20.756Z,28.10
2018-12-12T23:32:23.055Z,32.93
2018-12-12T23:37:25.279Z,35.87
2018-12-12T23:42:27.530Z,29.93
2018-12-12T23:47:29.771Z,33.53
2018-12-12T23:52:32.031Z,38.53
2018-12-12T23:57:34.279Z,42.20
